Time;durP1;ratioP1;P1;durP2;ratioP2;P2;SDS_P1;SDS_P2;PMS_P1;PMS_P2;Temp;Humidity;BMP_temperature;BMP_pressure;BME280_temperature;BME280_humidity;BME280_pressure;Samples;Min_cycle;Max_cycle;Signal;HPM_P1;HPM_P2
2024/03/23 00:02:17;;;;;;;21.02;12.60;;;;;;;;;;5031649;28;20025;-50
2024/03/23 00:04:43;;;;;;;20.48;12.95;;;;;;;;;;5029991;28;20515;-51
2024/03/23 00:07:10;;;;;;;15.63;12.35;;;;;;;;;;5028219;28;20025;-50
2024/03/23 00:09:36;;;;;;;21.88;12.65;;;;;;;;;;5029537;28;20039;-52
2024/03/23 00:12:02;;;;;;;16.95;13.25;;;;;;;;;;5029563;28;20292;-48
2024/03/23 00:14:29;;;;;;;16.15;12.43;;;;;;;;;;5029450;28;20025;-48
2024/03/23 00:16:55;;;;;;;20.55;13.15;;;;;;;;;;5028807;28;20033;-46
2024/03/23 00:19:22;;;;;;;19.48;12.48;;;;;;;;;;5029015;28;20401;-53
2024/03/23 00:21:48;;;;;;;16.60;11.77;;;;;;;;;;5028491;28;20030;-51
2024/03/23 00:24:14;;;;;;;18.08;11.98;;;;;;;;;;5028820;28;20461;-47
2024/03/23 00:26:41;;;;;;;19.92;12.85;;;;;;;;;;5029111;28;20053;-46
2024/03/23 00:29:07;;;;;;;15.70;11.95;;;;;;;;;;5029012;28;20037;-49
2024/03/23 00:31:33;;;;;;;18.63;13.05;;;;;;;;;;5028711;28;20477;-51
2024/03/23 00:34:00;;;;;;;18.25;13.20;;;;;;;;;;5029043;28;20091;-47
2024/03/23 00:36:26;;;;;;;18.75;12.27;;;;;;;;;;5028650;28;20037;-53
2024/03/23 00:38:53;;;;;;;22.58;12.98;;;;;;;;;;5028585;28;20040;-51
2024/03/23 00:41:19;;;;;;;16.45;13.13;;;11.00;99.90;;;;;;5029075;28;20025;-47
2024/03/23 00:43:45;;;;;;;61.95;36.38;;;11.10;99.90;;;;;;5029361;28;20030;-53
2024/03/23 00:46:12;;;;;;;29.95;20.20;;;11.00;99.90;;;;;;5029454;28;20029;-51
2024/03/23 00:48:38;;;;;;;23.67;13.35;;;11.00;99.90;;;;;;5028201;28;20152;-48
2024/03/23 00:51:05;;;;;;;16.65;12.38;;;10.90;99.90;;;;;;5028237;28;20029;-53
2024/03/23 00:53:33;;;;;;;19.98;12.57;;;10.90;99.90;;;;;;5028467;28;20489;-50
2024/03/23 00:55:59;;;;;;;19.30;14.32;;;10.90;99.90;;;;;;5028444;28;20021;-49
2024/03/23 00:58:24;;;;;;;17.45;12.27;;;10.80;99.90;;;;;;5009191;28;20428;-51
2024/03/23 01:00:50;;;;;;;17.85;11.88;;;10.80;99.90;;;;;;5008910;28;20029;-49
2024/03/23 01:03:15;;;;;;;20.45;12.98;;;10.80;99.90;;;;;;5008925;28;20014;-49
2024/03/23 01:05:40;;;;;;;15.57;12.23;;;10.80;99.90;;;;;;5025916;28;20489;-54
2024/03/23 01:08:06;;;;;;;18.15;13.13;;;10.80;99.90;;;;;;5029404;28;20065;-49
2024/03/23 01:10:32;;;;;;;16.65;11.98;;;10.70;99.90;;;;;;5030015;28;20042;-47
2024/03/23 01:12:57;;;;;;;17.83;12.23;;;10.70;99.90;;;;;;5029546;28;20075;-51
2024/03/23 01:15:23;;;;;;;22.35;13.80;;;10.70;99.90;;;;;;5028122;28;20045;-50
2024/03/23 01:17:48;;;;;;;17.73;13.02;;;10.70;99.90;;;;;;5029718;28;20026;-51
2024/03/23 01:20:14;;;;;;;15.60;11.82;;;10.70;99.90;;;;;;5032835;28;20037;-53
2024/03/23 01:22:39;;;;;;;14.45;12.10;;;10.70;99.90;;;;;;5035543;28;20064;-47
2024/03/23 01:25:05;;;;;;;17.02;12.85;;;10.50;99.90;;;;;;5032751;28;20389;-49
2024/03/23 01:27:31;;;;;;;15.25;12.48;;;10.50;99.90;;;;;;5031192;28;20061;-48
2024/03/23 01:29:56;;;;;;;23.80;12.68;;;10.60;99.90;;;;;;5031463;28;20451;-48
2024/03/23 01:32:22;;;;;;;16.60;12.30;;;10.60;99.90;;;;;;5029685;28;20621;-52
2024/03/23 01:34:47;;;;;;;17.40;12.43;;;10.60;99.90;;;;;;5028847;28;20052;-49
2024/03/23 01:37:13;;;;;;;19.88;11.77;;;10.70;99.90;;;;;;5028481;28;20098;-50
2024/03/23 01:39:38;;;;;;;14.63;11.52;;;10.70;99.90;;;;;;5026808;28;20516;-51
2024/03/23 01:42:04;;;;;;;17.77;12.60;;;10.80;99.90;;;;;;5028609;28;20034;-48
2024/03/23 01:44:29;;;;;;;14.10;12.10;;;10.90;99.90;;;;;;5028954;28;20017;-51
2024/03/23 01:46:55;;;;;;;18.70;11.70;;;10.80;99.90;;;;;;5028306;28;20531;-54
2024/03/23 01:49:20;;;;;;;15.63;12.40;;;10.80;99.90;;;;;;5028123;28;20120;-51
2024/03/23 01:51:46;;;;;;;18.77;11.88;;;10.80;99.90;;;;;;5027842;28;20547;-49
2024/03/23 01:54:12;;;;;;;15.27;11.75;;;10.70;99.90;;;;;;5028248;28;20026;-49
2024/03/23 01:56:38;;;;;;;15.20;12.55;;;10.60;99.90;;;;;;5028632;28;20037;-49
2024/03/23 01:59:06;;;;;;;18.95;11.75;;;10.60;99.90;;;;;;5028285;28;20041;-50
2024/03/23 02:01:32;;;;;;;16.77;12.30;;;10.60;99.90;;;;;;5027599;28;20033;-49
2024/03/23 02:03:58;;;;;;;13.57;11.25;;;10.50;99.90;;;;;;5063277;23;20113;-47
2024/03/23 02:06:25;;;;;;;18.80;12.68;;;10.50;99.90;;;;;;5069352;28;20020;-47
2024/03/23 02:08:51;;;;;;;15.98;12.00;;;10.40;99.90;;;;;;5070551;28;20029;-52
2024/03/23 02:11:17;;;;;;;17.65;12.30;;;10.40;99.90;;;;;;5070546;28;20086;-46
2024/03/23 02:13:42;;;;;;;19.58;12.32;;;10.30;99.90;;;;;;5070646;28;20124;-51
2024/03/23 02:16:08;;;;;;;14.63;11.80;;;10.30;99.90;;;;;;5069571;28;20111;-52
2024/03/23 02:18:34;;;;;;;23.23;12.48;;;10.30;99.90;;;;;;5070457;28;20438;-50
2024/03/23 02:20:59;;;;;;;19.75;14.52;;;10.30;99.90;;;;;;5074014;28;20082;-54
2024/03/23 02:23:25;;;;;;;20.80;13.13;;;10.30;99.90;;;;;;5074102;28;20505;-49
2024/03/23 02:25:51;;;;;;;21.48;14.55;;;10.40;99.90;;;;;;5074349;28;20032;-50
2024/03/23 02:28:17;;;;;;;16.35;12.82;;;10.40;99.90;;;;;;5074107;28;20024;-50
2024/03/23 02:30:42;;;;;;;17.38;13.80;;;10.40;99.90;;;;;;5074549;28;20110;-53
2024/03/23 02:33:08;;;;;;;21.63;14.43;;;10.30;99.90;;;;;;5074100;28;20484;-52
2024/03/23 02:35:34;;;;;;;19.50;13.95;;;10.30;99.90;;;;;;5074214;28;20488;-49
2024/03/23 02:37:59;;;;;;;19.20;14.65;;;10.30;99.90;;;;;;5072694;28;20032;-50
2024/03/23 02:40:25;;;;;;;29.75;17.38;;;10.20;99.90;;;;;;5074065;28;20020;-52
2024/03/23 02:42:51;;;;;;;24.73;16.00;;;10.10;99.90;;;;;;5073962;28;20044;-51
2024/03/23 02:45:16;;;;;;;23.10;17.00;;;10.10;99.90;;;;;;5074021;28;20036;-50
2024/03/23 02:47:42;;;;;;;20.65;15.98;;;10.00;99.90;;;;;;5073771;28;20517;-48
2024/03/23 02:50:09;;;;;;;22.77;17.50;;;10.00;99.90;;;;;;5073717;28;20104;-49
2024/03/23 02:52:34;;;;;;;22.60;15.40;;;10.00;99.90;;;;;;5073981;28;20415;-49
2024/03/23 02:55:01;;;;;;;25.67;16.17;;;9.90;99.90;;;;;;5073682;28;20025;-48
2024/03/23 02:57:27;;;;;;;26.20;16.58;;;9.90;99.90;;;;;;5073579;28;20017;-52
2024/03/23 02:59:53;;;;;;;25.27;16.45;;;9.90;99.90;;;;;;5073573;28;20537;-52
2024/03/23 03:02:19;;;;;;;23.75;16.73;;;;;;;;;;5073417;28;20365;-49
2024/03/23 03:04:45;;;;;;;23.10;16.38;;;9.80;99.90;;;;;;5073302;28;20062;-47
2024/03/23 03:07:10;;;;;;;22.02;15.98;;;9.70;99.90;;;;;;5073620;28;20021;-50
2024/03/23 03:09:38;;;;;;;26.92;16.10;;;9.70;99.90;;;;;;5073484;28;20028;-52
2024/03/23 03:12:07;;;;;;;24.70;17.55;;;9.80;99.90;;;;;;5073911;28;20103;-54
2024/03/23 03:14:33;;;;;;;22.50;16.85;;;9.70;99.90;;;;;;5073239;28;20020;-49
2024/03/23 03:16:58;;;;;;;27.27;18.05;;;9.80;99.90;;;;;;5073237;28;20032;-52
2024/03/23 03:19:24;;;;;;;26.05;18.58;;;9.80;99.90;;;;;;5073147;28;20495;-52
2024/03/23 03:21:49;;;;;;;32.22;19.48;;;9.80;99.90;;;;;;5073626;28;20071;-50
2024/03/23 03:24:15;;;;;;;27.42;18.75;;;9.80;99.90;;;;;;5074218;28;20024;-49
2024/03/23 03:26:40;;;;;;;28.27;18.20;;;10.00;99.90;;;;;;5073323;28;20051;-49
2024/03/23 03:29:06;;;;;;;26.85;17.55;;;10.00;99.90;;;;;;5073037;28;20056;-50
2024/03/23 03:31:31;;;;;;;28.35;18.58;;;10.00;99.90;;;;;;5071660;28;20028;-50
2024/03/23 03:33:57;;;;;;;29.98;18.80;;;10.10;99.90;;;;;;5071540;28;20024;-51
2024/03/23 03:36:23;;;;;;;27.02;16.63;;;10.20;99.90;;;;;;5072972;28;20070;-53
2024/03/23 03:38:48;;;;;;;24.60;16.95;;;10.20;99.90;;;;;;5072773;28;20040;-50
2024/03/23 03:41:14;;;;;;;24.35;18.90;;;10.10;99.90;;;;;;5072685;28;20283;-49
2024/03/23 03:43:39;;;;;;;27.35;16.75;;;10.20;99.90;;;;;;5072611;28;20082;-52
2024/03/23 03:46:05;;;;;;;22.98;15.85;;;10.20;99.90;;;;;;5072641;28;20020;-54
2024/03/23 03:48:30;;;;;;;24.48;16.80;;;10.20;99.90;;;;;;5072649;28;20086;-53
2024/03/23 03:50:56;;;;;;;26.50;16.17;;;10.20;99.90;;;;;;5072448;28;20039;-52
2024/03/23 03:53:21;;;;;;;23.10;16.08;;;10.30;99.90;;;;;;5072599;28;20040;-52
2024/03/23 03:55:47;;;;;;;23.38;15.70;;;10.30;99.90;;;;;;5073581;28;20457;-55
2024/03/23 03:58:12;;;;;;;22.33;16.65;;;10.30;99.90;;;;;;5072414;28;20510;-53
2024/03/23 04:00:38;;;;;;;26.42;17.55;;;10.30;99.90;;;;;;5072305;28;20107;-47
2024/03/23 04:03:03;;;;;;;19.35;15.70;;;10.30;99.90;;;;;;5072181;28;20032;-53
2024/03/23 04:05:29;;;;;;;23.27;15.85;;;10.30;99.90;;;;;;5070860;28;20071;-51
2024/03/23 04:07:54;;;;;;;24.58;17.58;;;10.30;99.90;;;;;;5072231;28;20032;-50
2024/03/23 04:10:20;;;;;;;24.63;17.63;;;10.30;99.90;;;;;;5072060;28;20064;-52
2024/03/23 04:12:47;;;;;;;25.38;17.38;;;10.40;99.90;;;;;;5072294;28;20400;-56
2024/03/23 04:15:13;;;;;;;25.15;17.30;;;10.30;99.90;;;;;;5070785;28;20032;-51
2024/03/23 04:17:38;;;;;;;28.58;17.17;;;10.30;99.90;;;;;;5072404;28;20025;-50
2024/03/23 04:20:08;;;;;;;23.55;16.70;;;10.30;99.90;;;;;;5071936;28;20021;-55
2024/03/23 04:22:34;;;;;;;27.88;17.70;;;10.30;99.90;;;;;;5072019;28;20123;-53
2024/03/23 04:25:00;;;;;;;28.92;17.02;;;10.30;99.90;;;;;;5071827;28;20496;-52
2024/03/23 04:27:25;;;;;;;22.60;13.10;;;10.10;99.90;;;;;;5071818;28;20029;-54
2024/03/23 04:29:55;;;;;;;14.52;9.70;;;10.10;99.90;;;;;;5071896;28;20103;-50
2024/03/23 04:32:21;;;;;;;9.00;6.10;;;10.00;99.90;;;;;;5071634;28;20024;-49
2024/03/23 04:34:47;;;;;;;7.05;5.05;;;9.90;99.90;;;;;;5071823;28;20082;-48
2024/03/23 04:37:13;;;;;;;8.05;3.80;;;9.70;99.90;;;;;;5070370;28;20131;-49
2024/03/23 04:39:38;;;;;;;4.38;3.55;;;9.60;99.90;;;;;;5071621;28;20099;-54
2024/03/23 04:42:04;;;;;;;4.40;2.88;;;9.60;99.90;;;;;;5071218;28;20028;-50
2024/03/23 04:44:30;;;;;;;2.45;2.25;;;9.50;99.90;;;;;;5071563;28;20025;-51
2024/03/23 04:47:00;;;;;;;2.55;2.33;;;9.50;99.90;;;;;;5071595;28;20435;-49
2024/03/23 04:49:26;;;;;;;2.88;2.58;;;9.40;99.90;;;;;;5071681;28;20368;-50
2024/03/23 04:51:51;;;;;;;1.70;1.60;;;9.40;99.90;;;;;;5071878;28;20038;-52
2024/03/23 04:54:16;;;;;;;2.10;1.77;;;9.30;99.90;;;;;;5071275;28;20032;-47
2024/03/23 04:56:42;;;;;;;4.10;2.85;;;9.30;99.90;;;;;;5071346;28;20036;-52
2024/03/23 04:59:08;;;;;;;2.33;2.13;;;9.30;99.90;;;;;;5071320;28;20065;-51
2024/03/23 05:01:34;;;;;;;2.20;1.98;;;9.30;99.90;;;;;;5071729;28;20099;-53
2024/03/23 05:04:00;;;;;;;1.50;1.40;;;9.30;99.90;;;;;;5070824;28;20109;-53
2024/03/23 05:06:25;;;;;;;1.70;1.60;;;9.30;99.90;;;;;;5071750;28;20395;-46
2024/03/23 05:08:51;;;;;;;1.50;1.40;;;9.30;99.90;;;;;;5071385;28;20028;-49
2024/03/23 05:11:17;;;;;;;1.67;1.55;;;9.20;99.90;;;;;;5071397;28;20422;-49
2024/03/23 05:13:43;;;;;;;1.70;1.50;;;9.30;99.90;;;;;;5071425;28;20054;-49
2024/03/23 05:16:09;;;;;;;1.58;1.48;;;9.30;99.90;;;;;;5071577;28;20037;-53
2024/03/23 05:18:35;;;;;;;1.83;1.52;;;;;;;;;;5071209;28;20086;-53
2024/03/23 05:21:01;;;;;;;1.85;1.63;;;;;;;;;;5071060;28;20025;-54
2024/03/23 05:23:29;;;;;;;1.48;1.38;;;;;;;;;;5070349;28;20020;-53
2024/03/23 05:25:55;;;;;;;1.42;1.30;;;;;;;;;;5071173;28;20484;-50
2024/03/23 05:28:21;;;;;;;1.88;1.77;;;;;;;;;;5071365;28;20552;-53
2024/03/23 05:30:53;;;;;;;2.05;1.95;;;;;;;;;;5069936;28;20090;-55
2024/03/23 05:33:20;;;;;;;2.10;2.00;;;;;;;;;;5071070;28;20067;-50
2024/03/23 05:35:46;;;;;;;2.30;2.20;;;;;;;;;;5071384;28;20028;-51
2024/03/23 05:38:12;;;;;;;2.42;2.10;;;9.20;99.90;;;;;;5071246;28;20025;-49
2024/03/23 05:40:40;;;;;;;2.38;2.17;;;;;;;;;;5069631;28;20514;-48
2024/03/23 05:43:06;;;;;;;2.35;2.25;;;8.80;99.90;;;;;;5071025;28;20021;-51
2024/03/23 05:45:32;;;;;;;2.55;2.40;;;8.80;99.90;;;;;;5071184;28;20070;-48
2024/03/23 05:47:57;;;;;;;3.33;2.65;;;8.80;99.90;;;;;;5070969;28;20449;-51
2024/03/23 05:50:23;;;;;;;4.40;2.80;;;8.80;99.90;;;;;;5070853;28;20431;-48
2024/03/23 05:52:49;;;;;;;2.72;2.60;;;8.90;99.90;;;;;;5071037;28;20039;-48
2024/03/23 05:55:15;;;;;;;2.70;2.55;;;8.80;99.90;;;;;;5074129;28;20112;-48
2024/03/23 05:57:40;;;;;;;6.28;2.30;;;8.70;99.90;;;;;;5073566;28;20104;-49
2024/03/23 06:00:10;;;;;;;2.60;2.40;;;8.70;99.90;;;;;;5074577;28;20024;-49
2024/03/23 06:02:35;;;;;;;1.70;1.60;;;8.70;99.90;;;;;;5074444;28;20040;-54
2024/03/23 06:05:02;;;;;;;1.70;1.60;;;8.60;99.90;;;;;;5074195;28;20037;-47
2024/03/23 06:07:27;;;;;;;1.65;1.55;;;8.60;99.90;;;;;;5073123;28;20503;-48
2024/03/23 06:09:53;;;;;;;1.73;1.63;;;8.50;99.90;;;;;;5073482;28;20028;-48
2024/03/23 06:12:18;;;;;;;2.75;1.60;;;8.50;99.90;;;;;;5074225;28;20029;-50
2024/03/23 06:14:44;;;;;;;2.00;1.90;;;8.40;99.90;;;;;;5074258;28;20033;-48
2024/03/23 06:17:09;;;;;;;1.52;1.42;;;8.50;99.90;;;;;;5073053;28;20102;-49
2024/03/23 06:19:35;;;;;;;2.65;1.65;;;8.50;99.90;;;;;;5074638;28;20059;-52
2024/03/23 06:22:00;;;;;;;3.65;1.30;;;8.60;99.90;;;;;;5072952;28;20032;-54
2024/03/23 06:24:26;;;;;;;1.40;1.30;;;8.50;99.90;;;;;;5074165;28;20032;-53
2024/03/23 06:26:51;;;;;;;1.52;1.42;;;8.60;99.90;;;;;;5074221;28;20458;-50
2024/03/23 06:29:17;;;;;;;1.02;1.00;;;8.60;99.90;;;;;;5074263;28;20032;-49
2024/03/23 06:31:42;;;;;;;1.40;1.30;;;8.60;99.90;;;;;;5074107;28;20020;-49
2024/03/23 06:34:08;;;;;;;1.73;1.63;;;8.60;99.90;;;;;;5074421;28;20029;-49
2024/03/23 06:36:33;;;;;;;1.10;1.10;;;8.60;99.90;;;;;;5074064;28;20067;-49
2024/03/23 06:38:59;;;;;;;1.10;1.10;;;8.50;99.90;;;;;;5074213;28;20115;-52
2024/03/23 06:41:25;;;;;;;1.27;1.17;;;8.50;99.90;;;;;;5072456;28;20111;-47
2024/03/23 06:43:50;;;;;;;1.48;1.38;;;8.50;99.90;;;;;;5072408;28;20025;-50
2024/03/23 06:46:16;;;;;;;1.58;1.48;;;8.50;99.90;;;;;;5074095;28;20094;-49
2024/03/23 06:48:41;;;;;;;1.52;1.42;;;8.40;99.90;;;;;;5074540;28;20037;-51
2024/03/23 06:51:07;;;;;;;2.65;1.80;;;8.40;99.90;;;;;;5073870;28;20020;-49
2024/03/23 06:53:33;;;;;;;3.53;1.40;;;8.40;99.90;;;;;;5073775;28;20031;-49
2024/03/23 06:55:58;;;;;;;1.38;1.38;;;8.40;99.90;;;;;;5074005;28;20048;-49
2024/03/23 06:58:25;;;;;;;1.77;1.67;;;8.40;99.90;;;;;;5074558;28;20024;-48
2024/03/23 07:00:50;;;;;;;1.25;1.25;;;8.40;99.90;;;;;;5074349;28;20025;-49
2024/03/23 07:03:19;;;;;;;1.70;1.60;;;8.40;99.90;;;;;;5073962;28;20021;-50
2024/03/23 07:05:46;;;;;;;1.23;1.20;;;8.40;99.90;;;;;;5073263;28;20437;-53
2024/03/23 07:08:11;;;;;;;1.20;1.10;;;8.50;99.90;;;;;;5073603;28;20081;-52
2024/03/23 07:10:39;;;;;;;1.00;0.98;;;8.60;99.90;;;;;;5072232;28;20032;-51
2024/03/23 07:13:05;;;;;;;1.55;1.27;;;8.60;99.90;;;;;;5073830;28;20043;-48
2024/03/23 07:15:30;;;;;;;3.22;1.45;;;8.60;99.90;;;;;;5073788;28;20106;-51
2024/03/23 07:17:56;;;;;;;1.55;1.45;;;8.80;99.90;;;;;;5073562;28;20119;-50
2024/03/23 07:20:21;;;;;;;2.72;1.35;;;8.80;99.90;;;;;;5073076;28;20108;-50
2024/03/23 07:22:50;;;;;;;1.58;1.48;;;8.80;99.90;;;;;;5073339;28;20092;-53
2024/03/23 07:25:16;;;;;;;4.82;1.50;;;8.80;99.90;;;;;;5071488;28;20033;-50
2024/03/23 07:27:41;;;;;;;4.10;1.88;;;8.70;99.90;;;;;;5072806;28;20025;-50
2024/03/23 07:30:08;;;;;;;3.88;1.63;;;8.70;99.90;;;;;;5072857;28;20028;-53
2024/03/23 07:32:34;;;;;;;2.08;1.98;;;8.60;99.90;;;;;;5073008;28;20024;-54
2024/03/23 07:35:00;;;;;;;2.17;1.92;;;8.50;99.90;;;;;;5073178;28;20032;-52
2024/03/23 07:37:25;;;;;;;2.65;1.88;;;8.50;99.90;;;;;;5072738;28;20032;-53
2024/03/23 07:39:51;;;;;;;3.85;1.60;;;8.70;99.90;;;;;;5072739;28;20025;-51
2024/03/23 07:42:16;;;;;;;4.70;2.38;;;8.60;99.90;;;;;;5072805;28;20536;-48
2024/03/23 07:44:42;;;;;;;2.53;1.70;;;8.60;99.90;;;;;;5072772;28;20020;-50
2024/03/23 07:47:07;;;;;;;2.03;1.60;;;8.60;99.90;;;;;;5072649;28;20066;-55
2024/03/23 07:49:33;;;;;;;5.20;1.90;;;8.80;99.90;;;;;;5072626;28;20029;-50
2024/03/23 07:51:58;;;;;;;3.33;1.40;;;8.90;99.90;;;;;;5072418;28;20100;-48
2024/03/23 07:54:24;;;;;;;5.20;2.08;;;9.10;99.90;;;;;;5072324;28;20062;-52
2024/03/23 07:56:49;;;;;;;4.10;1.85;;;9.20;99.90;;;;;;5072295;28;20035;-49
2024/03/23 07:59:15;;;;;;;3.60;2.47;;;9.30;99.90;;;;;;5072370;28;20550;-53
2024/03/23 08:01:40;;;;;;;3.45;2.60;;;9.20;99.90;;;;;;5072162;28;20020;-54
2024/03/23 08:04:06;;;;;;;5.90;2.83;;;9.10;99.90;;;;;;5071554;28;20064;-52
2024/03/23 08:06:31;;;;;;;4.95;2.83;;;8.90;99.90;;;;;;5072080;28;20025;-50
2024/03/23 08:09:01;;;;;;;7.43;3.13;;;8.80;99.90;;;;;;5072552;28;20040;-50
2024/03/23 08:11:27;;;;;;;8.48;2.90;;;8.90;99.90;;;;;;5072123;28;20492;-55
2024/03/23 08:13:53;;;;;;;7.28;4.13;;;8.90;99.90;;;;;;5072213;28;20020;-52
2024/03/23 08:16:19;;;;;;;5.00;3.70;;;9.10;99.90;;;;;;5071589;28;20167;-53
2024/03/23 08:18:44;;;;;;;6.47;3.72;;;9.30;99.90;;;;;;5071977;28;20057;-53
2024/03/23 08:21:10;;;;;;;7.82;3.58;;;9.20;99.90;;;;;;5070704;28;20520;-50
2024/03/23 08:23:37;;;;;;;9.32;3.80;;;9.40;99.90;;;;;;5072061;28;20071;-51
2024/03/23 08:26:09;;;;;;;7.05;4.32;;;9.30;99.90;;;;;;5072006;28;20016;-54
2024/03/23 08:28:35;;;;;;;5.68;3.63;;;9.50;99.90;;;;;;5071981;28;20028;-53
2024/03/23 08:31:06;;;;;;;6.07;4.13;;;9.60;99.90;;;;;;5071825;28;20032;-50
2024/03/23 08:33:31;;;;;;;9.02;4.40;;;9.80;99.90;;;;;;5072069;28;20540;-49
2024/03/23 08:35:59;;;;;;;8.30;4.30;;;9.60;99.90;;;;;;5072080;28;20146;-55
2024/03/23 08:38:25;;;;;;;9.65;4.00;;;9.50;99.90;;;;;;5071886;28;20028;-50
2024/03/23 08:41:00;;;;;;;14.57;4.22;;;9.40;99.90;;;;;;5071696;28;20027;-52
2024/03/23 08:43:26;;;;;;;9.32;3.42;;;9.40;99.90;;;;;;5071755;28;20392;-49
2024/03/23 08:45:52;;;;;;;6.07;3.80;;;9.40;99.90;;;;;;5071791;28;20021;-55
2024/03/23 08:48:22;;;;;;;9.50;3.47;;;9.50;99.90;;;;;;5071654;28;20028;-51
2024/03/23 08:50:59;;;;;;;10.88;3.80;;;9.80;99.90;;;;;;5071920;28;20063;-55
2024/03/23 08:53:27;;;;;;;8.77;3.50;;;10.00;99.90;;;;;;5071554;28;20036;-52
2024/03/23 08:55:54;;;;;;;12.50;3.80;;;10.00;99.90;;;;;;5071805;28;20103;-48
2024/03/23 08:58:20;;;;;;;10.27;3.60;;;10.20;99.90;;;;;;5071863;28;20029;-54
2024/03/23 09:00:46;;;;;;;8.15;3.63;;;10.40;99.90;;;;;;5071863;28;20246;-51
2024/03/23 09:03:12;;;;;;;8.88;4.38;;;10.90;99.90;;;;;;5071538;28;20438;-52
2024/03/23 09:05:41;;;;;;;7.80;3.40;;;;;;;;;;5071604;28;20033;-55
2024/03/23 09:08:07;;;;;;;12.45;3.83;;;12.00;99.90;;;;;;5071493;28;20024;-51
2024/03/23 09:10:37;;;;;;;4.38;3.30;;;11.90;99.90;;;;;;5071451;28;20408;-52
2024/03/23 09:13:03;;;;;;;9.35;4.15;;;11.70;99.90;;;;;;5071430;28;20025;-49
2024/03/23 09:15:29;;;;;;;9.88;3.70;;;11.50;99.90;;;;;;5071453;28;20489;-53
2024/03/23 09:17:54;;;;;;;16.00;4.15;;;11.40;99.90;;;;;;5071250;28;20029;-52
2024/03/23 09:20:20;;;;;;;7.38;3.80;;;11.20;99.90;;;;;;5071369;28;20016;-49
2024/03/23 09:22:47;;;;;;;8.10;3.58;;;10.90;99.90;;;;;;5070348;28;20021;-49
2024/03/23 09:25:13;;;;;;;9.38;4.43;;;10.80;99.90;;;;;;5071324;28;20420;-50
2024/03/23 09:27:38;;;;;;;12.65;4.05;;;10.80;99.90;;;;;;5071778;28;20184;-52
2024/03/23 09:30:04;;;;;;;10.80;3.88;;;11.00;99.90;;;;;;5075372;28;20036;-48
2024/03/23 09:32:30;;;;;;;8.05;2.72;;;11.00;99.90;;;;;;5075347;28;20025;-55
2024/03/23 09:34:55;;;;;;;10.70;3.00;;;11.10;99.90;;;;;;5075209;28;20051;-51
2024/03/23 09:37:22;;;;;;;10.70;3.72;;;11.20;99.90;;;;;;5075168;28;20049;-52
2024/03/23 09:39:47;;;;;;;9.10;3.03;;;11.70;99.90;;;;;;5073878;28;20025;-54
2024/03/23 09:42:14;;;;;;;8.82;3.22;;;;;;;;;;5075091;28;20020;-51
2024/03/23 09:44:40;;;;;;;10.60;4.55;;;12.20;99.90;;;;;;5075145;28;20395;-51
2024/03/23 09:47:06;;;;;;;13.40;3.40;;;12.00;99.90;;;;;;5075200;28;20043;-52
2024/03/23 09:49:36;;;;;;;5.82;2.75;;;11.90;99.90;;;;;;5074922;28;20112;-57
2024/03/23 09:52:02;;;;;;;5.72;2.85;;;11.80;99.90;;;;;;5074944;28;20071;-54
2024/03/23 09:54:28;;;;;;;8.00;2.17;;;11.60;99.90;;;;;;5074942;28;20025;-54
2024/03/23 09:56:53;;;;;;;8.38;2.72;;;11.50;99.90;;;;;;5074879;28;20035;-53
2024/03/23 09:59:19;;;;;;;5.30;2.10;;;11.50;99.90;;;;;;5074809;28;20511;-52
2024/03/23 10:01:44;;;;;;;8.73;2.83;;;11.50;99.90;;;;;;5075469;28;20052;-54
2024/03/23 10:04:10;;;;;;;11.80;3.00;;;11.50;99.90;;;;;;5074947;28;20033;-49
2024/03/23 10:06:36;;;;;;;4.70;2.30;;;11.30;99.90;;;;;;5074575;28;20028;-52
2024/03/23 10:09:16;;;;;;;8.07;2.65;;;11.30;99.90;;;;;;5073505;28;20115;-49
2024/03/23 10:11:44;;;;;;;10.57;3.17;;;11.40;99.90;;;;;;5074471;28;20024;-54
2024/03/23 10:14:09;;;;;;;4.30;2.38;;;11.40;99.90;;;;;;5074230;28;20082;-49
2024/03/23 10:16:35;;;;;;;5.95;2.58;;;11.40;99.90;;;;;;5065239;28;20032;-49
2024/03/23 10:19:00;;;;;;;5.78;2.35;;;11.40;99.90;;;;;;5067602;28;20502;-48
2024/03/23 10:21:26;;;;;;;6.82;3.40;;;11.30;99.90;;;;;;5074365;28;20048;-51
2024/03/23 10:23:51;;;;;;;10.90;2.35;;;11.40;99.90;;;;;;5054307;28;20435;-52
2024/03/23 10:26:25;;;;;;;5.93;2.00;;;11.20;99.90;;;;;;5062018;28;20434;-50
2024/03/23 10:29:00;;;;;;;12.85;3.28;;;11.10;99.90;;;;;;5061985;28;20033;-50
2024/03/23 10:31:41;;;;;;;7.55;2.20;;;11.50;99.90;;;;;;5072047;28;20020;-48
2024/03/23 10:34:07;;;;;;;5.95;1.95;;;11.70;99.60;;;;;;5094335;28;20031;-50
2024/03/23 10:36:38;;;;;;;13.70;2.15;;;11.90;99.70;;;;;;5084969;28;20025;-53
2024/03/23 10:39:07;;;;;;;9.27;2.10;;;11.70;98.80;;;;;;5053550;28;20028;-52
2024/03/23 10:41:33;;;;;;;3.45;1.25;;;;;;;;;;5053737;28;20428;-52
2024/03/23 10:43:59;;;;;;;4.95;1.90;;;;;;;;;;5053775;28;20111;-52
2024/03/23 10:46:25;;;;;;;3.35;1.70;;;10.00;99.90;;;;;;5054002;28;20404;-49
2024/03/23 10:48:51;;;;;;;10.10;1.77;;;;;;;;;;5052328;28;20024;-50
2024/03/23 10:51:17;;;;;;;3.42;1.40;;;;;;;;;;5051620;28;20037;-49
2024/03/23 10:53:44;;;;;;;1.63;1.30;;;8.30;99.90;;;;;;5072330;28;20207;-54
2024/03/23 10:56:12;;;;;;;4.97;1.85;;;8.40;99.90;;;;;;5066936;28;20231;-49
2024/03/23 10:58:39;;;;;;;5.07;1.83;;;;;;;;;;5053404;28;20561;-53
2024/03/23 11:01:05;;;;;;;10.82;2.63;;;7.80;99.90;;;;;;5053666;28;20104;-50
2024/03/23 11:03:36;;;;;;;6.53;2.47;;;7.70;99.90;;;;;;5053702;28;20137;-49
2024/03/23 11:06:05;;;;;;;4.30;2.17;;;7.50;99.90;;;;;;5061744;28;20024;-51
2024/03/23 11:08:39;;;;;;;4.18;1.65;;;7.40;99.90;;;;;;5073659;28;20028;-52
2024/03/23 11:11:17;;;;;;;8.80;2.47;;;7.40;99.90;;;;;;5078656;28;20035;-50
2024/03/23 11:13:42;;;;;;;5.25;2.40;;;7.30;99.90;;;;;;5092348;28;20024;-52
2024/03/23 11:16:23;;;;;;;7.75;3.90;;;7.30;99.90;;;;;;5092406;28;20016;-50
2024/03/23 11:18:49;;;;;;;6.45;2.05;;;7.10;99.90;;;;;;5093838;28;20028;-53
2024/03/23 11:21:55;;;;;;;7.53;2.70;;;7.10;99.90;;;;;;5093430;28;20038;-51
2024/03/23 11:24:22;;;;;;;1.80;1.70;;;7.10;99.90;;;;;;5093699;28;20373;-46
2024/03/23 11:26:48;;;;;;;7.68;2.00;;;7.10;99.90;;;;;;5058090;28;20029;-48
2024/03/23 11:29:15;;;;;;;5.22;1.77;;;7.10;99.90;;;;;;5051930;28;20143;-51
2024/03/23 11:31:48;;;;;;;3.38;1.15;;;7.20;99.90;;;;;;5052712;28;20126;-50
2024/03/23 11:34:15;;;;;;;12.00;6.47;;;7.30;99.90;;;;;;5064145;28;20112;-49
2024/03/23 11:36:42;;;;;;;7.28;4.22;;;7.40;99.90;;;;;;5051830;28;20029;-47
2024/03/23 11:39:18;;;;;;;1.63;0.90;;;7.50;99.90;;;;;;5065332;28;20020;-48
2024/03/23 11:41:48;;;;;;;1.23;0.75;;;7.70;99.90;;;;;;5071333;28;20127;-55
2024/03/23 11:44:24;;;;;;;1.92;1.00;;;8.00;99.90;;;;;;5078375;28;20494;-51
2024/03/23 11:46:50;;;;;;;3.22;1.30;;;8.40;99.90;;;;;;5082870;28;20032;-48
2024/03/23 11:49:25;;;;;;;1.48;0.70;;;8.90;99.90;;;;;;5072219;28;20090;-51
2024/03/23 11:51:53;;;;;;;1.63;1.02;;;9.20;99.90;;;;;;5052711;28;20444;-48
2024/03/23 11:54:26;;;;;;;5.65;0.98;;;9.40;99.90;;;;;;5052289;28;20074;-51
2024/03/23 11:57:07;;;;;;;2.67;1.67;;;9.60;99.90;;;;;;5052616;28;20484;-49
2024/03/23 11:59:38;;;;;;;5.63;2.65;;;9.60;99.90;;;;;;5062435;28;20387;-47
2024/03/23 12:02:08;;;;;;;1.73;1.42;;;9.70;99.90;;;;;;5061857;28;20025;-46
2024/03/23 12:04:36;;;;;;;4.32;1.95;;;9.80;99.90;;;;;;5062409;28;20031;-45
2024/03/23 12:07:15;;;;;;;4.22;1.88;;;9.80;99.90;;;;;;5070603;28;20017;-46
2024/03/23 12:09:41;;;;;;;7.63;2.42;;;9.90;99.90;;;;;;5058995;28;20396;-42
2024/03/23 12:12:16;;;;;;;;;;;10.00;99.90;;;;;;5070013;28;20433;-48
2024/03/23 12:14:43;;;;;;;4.63;2.15;;;10.10;99.90;;;;;;5060498;28;19955;-49
2024/03/23 12:17:15;;;;;;;8.30;2.40;;;10.10;99.90;;;;;;5059608;28;20075;-44
2024/03/23 12:19:42;;;;;;;6.75;2.40;;;10.20;99.90;;;;;;5058728;28;20036;-47
2024/03/23 12:22:08;;;;;;;6.45;3.17;;;10.40;99.90;;;;;;5055853;28;20041;-46
2024/03/23 12:24:34;;;;;;;7.18;3.20;;;10.50;99.90;;;;;;5056929;28;20032;-49
2024/03/23 12:27:07;;;;;;;8.00;3.38;;;10.70;99.90;;;;;;5058128;28;20021;-47
2024/03/23 12:29:34;;;;;;;7.60;2.90;;;10.80;99.90;;;;;;5058905;28;20043;-46
2024/03/23 12:32:01;;;;;;;9.07;2.72;;;10.80;99.90;;;;;;5056019;28;20021;-47
2024/03/23 12:34:27;;;;;;;9.30;3.13;;;10.70;99.90;;;;;;5056816;28;20027;-47
2024/03/23 12:36:52;;;;;;;7.93;2.83;;;10.70;99.90;;;;;;5058211;28;20079;-49
2024/03/23 12:39:18;;;;;;;11.23;4.50;;;10.80;99.90;;;;;;5057354;28;20021;-47
2024/03/23 12:41:44;;;;;;;6.82;2.58;;;10.80;99.90;;;;;;5057241;28;20021;-45
2024/03/23 12:44:11;;;;;;;7.15;2.58;;;10.90;99.90;;;;;;5058160;28;20033;-51
2024/03/23 12:46:40;;;;;;;4.75;2.30;;;10.90;99.90;;;;;;5057030;28;20017;-46
2024/03/23 12:49:05;;;;;;;8.07;2.22;;;11.00;99.90;;;;;;5057539;28;20082;-44
2024/03/23 12:51:32;;;;;;;3.55;2.30;;;11.00;99.90;;;;;;5056603;28;20108;-46
2024/03/23 12:53:57;;;;;;;9.45;2.58;;;11.00;99.90;;;;;;5059159;28;20040;-47